Weather at Sentara Albemarle Regional Medical Center Heliport

Public forecast

Using degrees Fahrenheit for public forecast. Weather courtesy of forecast.io.

Closest aviation weather report (METAR) to Sentara Albemarle Regional Medical Center Heliport

Closest report is Elizabeth City Regional Airport & Coast Guard Air Station, 4.3 nm (8.0 km) SSE. Retrieved 2020/10/27 13:54 UTC (29 minutes ago):

KECG 271354Z 24005KT 2SM BR OVC002 17/17 A3021 RMK AO2 SLP231 T01670167

Closest aviation forecast (TAF) to Sentara Albemarle Regional Medical Center Heliport

Closest forecast is Elizabeth City Regional Airport & Coast Guard Air Station, 4.3 nm (8.0 km) SSE. Retrieved 2020/10/27 12:24 UTC (2 hours ago):

TAF TAF KECG 271120Z 2712/2812 VRB03KT 3/4SM BR VV003 FM271400 32004KT P6SM BKN006 FM271700 35004KT P6SM BKN012 FM272000 15004KT P6SM BKN050 FM280600 23004KT P6SM BKN008